Time;durP1;ratioP1;P1;durP2;ratioP2;P2;SDS_P1;SDS_P2;PMS_P1;PMS_P2;Temp;Humidity;BMP_temperature;BMP_pressure;BME280_temperature;BME280_humidity;BME280_pressure;Samples;Min_cycle;Max_cycle;Signal;HPM_P1;HPM_P2
2022/08/29 00:01:48;;;;;;;;;;;16.60;99.90;;;;;;5030045;28;19921;-68
2022/08/29 00:04:15;;;;;;;;;;;16.60;99.90;;;;;;5031109;28;20012;-68
2022/08/29 00:06:42;;;;;;;;;;;16.60;99.90;;;;;;5029480;28;19932;-68
2022/08/29 00:09:08;;;;;;;;;;;16.60;99.90;;;;;;5021889;28;19929;-67
2022/08/29 00:11:36;;;;;;;;;;;16.60;99.90;;;;;;5023833;28;19924;-68
2022/08/29 00:14:10;;;;;;;;;;;16.50;99.90;;;;;;5030469;28;19930;-68
2022/08/29 00:16:49;;;;;;;;;;;16.50;99.90;;;;;;5016465;28;19927;-68
2022/08/29 00:19:16;;;;;;;;;;;16.50;99.90;;;;;;5012505;28;19925;-68
2022/08/29 00:21:43;;;;;;;;;;;16.50;99.90;;;;;;5015315;28;19933;-68
2022/08/29 00:24:10;;;;;;;;;;;16.50;99.90;;;;;;5028511;28;19921;-68
2022/08/29 00:26:37;;;;;;;;;;;16.50;99.90;;;;;;5017479;28;19921;-68
2022/08/29 00:29:03;;;;;;;;;;;16.50;99.90;;;;;;5024274;28;20028;-68
2022/08/29 00:31:30;;;;;;;;;;;16.40;99.90;;;;;;5041256;28;20257;-69
2022/08/29 00:33:57;;;;;;;;;;;16.40;99.90;;;;;;5040347;28;20356;-69
2022/08/29 00:36:24;;;;;;;;;;;16.50;99.90;;;;;;5015136;28;20284;-69
2022/08/29 00:38:55;;;;;;;;;;;16.40;99.90;;;;;;5031385;28;19925;-69
2022/08/29 00:41:24;;;;;;;;;;;16.40;99.90;;;;;;5015918;28;19952;-69
2022/08/29 00:43:50;;;;;;;;;;;16.40;99.90;;;;;;5026713;28;19921;-69
2022/08/29 00:46:17;;;;;;;;;;;16.40;99.90;;;;;;5014466;28;19928;-69
2022/08/29 00:48:45;;;;;;;;;;;16.40;99.90;;;;;;5018038;28;19932;-69
2022/08/29 00:51:13;;;;;;;;;;;16.40;99.90;;;;;;5013554;28;19925;-69
2022/08/29 00:53:42;;;;;;;;;;;16.30;99.90;;;;;;5003482;28;19979;-69
2022/08/29 00:56:10;;;;;;;;;;;16.30;99.90;;;;;;5018726;28;20361;-69
2022/08/29 00:58:39;;;;;;;;;;;16.30;99.90;;;;;;5025469;28;19951;-69
2022/08/29 01:01:06;;;;;;;;;;;16.30;99.90;;;;;;5023405;28;19943;-69
2022/08/29 01:03:34;;;;;;;;;;;16.30;99.90;;;;;;5018442;28;19921;-69
2022/08/29 01:06:08;;;;;;;;;;;16.30;99.90;;;;;;5016027;28;19936;-69
2022/08/29 01:08:35;;;;;;;;;;;16.30;99.90;;;;;;5017597;28;19920;-70
2022/08/29 01:13:49;;;;;;;;;;;16.20;99.90;;;;;;5009134;28;19922;-69
2022/08/29 01:16:16;;;;;;;;;;;16.20;99.90;;;;;;5031099;28;19924;-69
2022/08/29 01:18:44;;;;;;;;;;;16.20;99.90;;;;;;5008022;28;19925;-69
2022/08/29 01:21:12;;;;;;;;;;;16.20;99.90;;;;;;5020455;28;19936;-69
2022/08/29 01:23:48;;;;;;;;;;;16.20;99.90;;;;;;5025049;28;19932;-69
2022/08/29 01:26:15;;;;;;;;;;;16.20;99.90;;;;;;5030245;28;19929;-69
2022/08/29 01:28:44;;;;;;;;;;;16.20;99.90;;;;;;5015371;28;20349;-69
2022/08/29 01:31:13;;;;;;;;;;;16.20;99.90;;;;;;5017408;28;19921;-69
2022/08/29 01:33:58;;;;;;;;;;;16.20;99.90;;;;;;5027924;28;19932;-69
2022/08/29 01:36:26;;;;;;;;;;;16.10;99.90;;;;;;5029215;28;19925;-69
2022/08/29 01:38:53;;;;;;;;;;;16.10;99.90;;;;;;5023611;28;19921;-70
2022/08/29 01:41:20;;;;;;;;;;;16.20;99.90;;;;;;5018967;28;19940;-69
2022/08/29 01:43:48;;;;;;;;;;;16.10;99.90;;;;;;5011595;28;19925;-69
2022/08/29 01:46:18;;;;;;;;;;;16.10;99.90;;;;;;5026769;28;20280;-69
2022/08/29 01:48:45;;;;;;;;;;;16.10;99.90;;;;;;5019794;28;19922;-69
2022/08/29 01:51:12;;;;;;;;;;;16.10;99.90;;;;;;5019713;28;19936;-69
2022/08/29 01:53:39;;;;;;;;;;;16.20;99.90;;;;;;5016132;28;19920;-69
2022/08/29 01:56:10;;;;;;;;;;;16.10;99.90;;;;;;5017296;28;20369;-69
2022/08/29 01:58:37;;;;;;;;;;;16.10;99.90;;;;;;5022446;28;19971;-69
2022/08/29 02:01:04;;;;;;;;;;;16.10;99.90;;;;;;5015455;28;20474;-69
2022/08/29 02:03:31;;;;;;;;;;;16.10;99.90;;;;;;5015320;28;19995;-69
2022/08/29 02:05:59;;;;;;;;;;;16.10;99.90;;;;;;5012176;28;20270;-69
2022/08/29 02:08:26;;;;;;;;;;;16.10;99.90;;;;;;5013107;28;19921;-69
2022/08/29 02:10:53;;;;;;;;;;;16.10;99.90;;;;;;5014312;28;19928;-69
2022/08/29 02:13:20;;;;;;;;;;;16.10;99.90;;;;;;5016539;28;19920;-69
2022/08/29 02:15:46;;;;;;;;;;;16.10;99.90;;;;;;5015003;28;20280;-69
2022/08/29 02:18:13;;;;;;;;;;;16.10;99.90;;;;;;5029107;28;19929;-69
2022/08/29 02:20:40;;;;;;;;;;;16.10;99.90;;;;;;5022907;28;19973;-69
2022/08/29 02:23:07;;;;;;;;;;;16.10;99.90;;;;;;5010171;28;20280;-69
2022/08/29 02:25:54;;;;;;;;;;;16.00;99.90;;;;;;5005863;28;19984;-69
2022/08/29 02:28:21;;;;;;;;;;;16.00;99.90;;;;;;5029830;28;19925;-69
2022/08/29 02:30:48;;;;;;;;;;;16.00;99.90;;;;;;5013256;28;19932;-69
2022/08/29 02:33:21;;;;;;;;;;;16.00;99.90;;;;;;5046012;28;19924;-69
2022/08/29 02:35:48;;;;;;;;;;;15.90;99.90;;;;;;5022533;28;19929;-70
2022/08/29 02:38:15;;;;;;;;;;;15.90;99.90;;;;;;5016043;28;19921;-69
2022/08/29 02:40:42;;;;;;;;;;;15.90;99.90;;;;;;5031331;28;19921;-69
2022/08/29 02:43:09;;;;;;;;;;;15.90;99.90;;;;;;5017184;28;19921;-69
2022/08/29 02:45:36;;;;;;;;;;;15.80;99.90;;;;;;5022098;28;19929;-69
2022/08/29 02:48:03;;;;;;;;;;;15.80;99.90;;;;;;5017477;28;19944;-69
2022/08/29 02:50:30;;;;;;;;;;;15.80;99.90;;;;;;5022822;28;20265;-70
2022/08/29 02:52:56;;;;;;;;;;;15.70;99.90;;;;;;5031432;28;19924;-69
2022/08/29 02:55:23;;;;;;;;;;;15.80;99.90;;;;;;5016854;28;19971;-69
2022/08/29 02:57:51;;;;;;;;;;;15.80;99.90;;;;;;5023492;28;20281;-69
2022/08/29 03:00:20;;;;;;;;;;;15.90;99.90;;;;;;5029473;28;19921;-69
2022/08/29 03:02:47;;;;;;;;;;;15.90;99.90;;;;;;5033202;28;20026;-69
2022/08/29 03:05:14;;;;;;;;;;;15.90;99.90;;;;;;5022244;28;20313;-69
2022/08/29 03:07:41;;;;;;;;;;;15.80;99.90;;;;;;5024640;28;19921;-70
2022/08/29 03:10:08;;;;;;;;;;;15.90;99.90;;;;;;5020389;28;20008;-70
2022/08/29 03:12:35;;;;;;;;;;;15.80;99.90;;;;;;5021970;28;19929;-69
2022/08/29 03:15:05;;;;;;;;;;;15.80;99.90;;;;;;5026556;28;19927;-69
2022/08/29 03:17:32;;;;;;;;;;;15.80;99.90;;;;;;5008920;28;19925;-69
2022/08/29 03:19:59;;;;;;;;;;;15.90;99.90;;;;;;5030472;28;20288;-69
2022/08/29 03:22:25;;;;;;;;;;;15.80;99.90;;;;;;5034584;28;19921;-69
2022/08/29 03:24:52;;;;;;;;;;;15.90;99.90;;;;;;5028049;28;19952;-69
2022/08/29 03:27:19;;;;;;;;;;;15.90;99.90;;;;;;5031297;28;19921;-69
2022/08/29 03:29:46;;;;;;;;;;;15.80;99.90;;;;;;5031921;28;19921;-69
2022/08/29 03:32:13;;;;;;;;;;;15.80;99.90;;;;;;5025564;28;19931;-69
2022/08/29 03:34:40;;;;;;;;;;;15.80;99.90;;;;;;5014260;28;19943;-70
2022/08/29 03:37:07;;;;;;;;;;;15.80;99.90;;;;;;5026585;28;19937;-71
2022/08/29 03:39:34;;;;;;;;;;;15.80;99.90;;;;;;5005651;28;19929;-70
2022/08/29 03:42:01;;;;;;;;;;;15.80;99.90;;;;;;5023478;28;19944;-70
2022/08/29 03:44:27;;;;;;;;;;;15.80;99.90;;;;;;5014509;28;20379;-69
2022/08/29 03:46:55;;;;;;;;;;;15.80;99.90;;;;;;5017158;28;19921;-69
2022/08/29 03:49:22;;;;;;;;;;;15.80;99.90;;;;;;5031226;28;19921;-70
2022/08/29 03:51:49;;;;;;;;;;;15.90;99.90;;;;;;5014319;28;20316;-70
2022/08/29 03:54:16;;;;;;;;;;;15.80;99.90;;;;;;5029676;28;19975;-69
2022/08/29 03:56:43;;;;;;;;;;;15.80;99.90;;;;;;5026912;28;19921;-70
2022/08/29 03:59:10;;;;;;;;;;;15.70;99.90;;;;;;5014106;28;19928;-70
2022/08/29 04:01:37;;;;;;;;;;;15.70;99.90;;;;;;5025833;28;19931;-69
2022/08/29 04:04:04;;;;;;;;;;;15.60;99.90;;;;;;5014970;28;19948;-70
2022/08/29 04:06:32;;;;;;;;;;;15.60;99.90;;;;;;5013856;28;19932;-69
2022/08/29 04:08:59;;;;;;;;;;;15.60;99.90;;;;;;5016051;28;20284;-70
2022/08/29 04:11:27;;;;;;;;;;;15.50;99.90;;;;;;4994988;28;20426;-70
2022/08/29 04:13:53;;;;;;;;;;;15.50;99.90;;;;;;5020671;28;19984;-69
2022/08/29 04:16:21;;;;;;;;;;;15.50;99.90;;;;;;5018812;28;19929;-70
2022/08/29 04:18:48;;;;;;;;;;;15.50;99.90;;;;;;5019058;28;20376;-77
2022/08/29 04:21:15;;;;;;;;;;;15.50;99.90;;;;;;5027604;28;19921;-69
2022/08/29 04:23:44;;;;;;;;;;;15.50;99.90;;;;;;5020930;28;19924;-80
2022/08/29 04:26:17;;;;;;;;;;;15.40;99.90;;;;;;5019352;28;19964;-79
2022/08/29 04:29:03;;;;;;;;;;;15.40;99.90;;;;;;5041531;28;19976;-80
2022/08/29 04:31:29;;;;;;;;;;;15.30;99.90;;;;;;5017151;28;19925;-74
2022/08/29 04:33:56;;;;;;;;;;;15.30;99.90;;;;;;5019815;28;19980;-79
2022/08/29 04:36:24;;;;;;;;;;;15.20;99.90;;;;;;5017942;28;19921;-79
2022/08/29 04:38:51;;;;;;;;;;;15.20;99.90;;;;;;5021200;28;20285;-77
2022/08/29 04:41:18;;;;;;;;;;;15.10;99.90;;;;;;5019019;28;19926;-79
2022/08/29 04:43:45;;;;;;;;;;;15.10;99.90;;;;;;5023083;28;19928;-80
2022/08/29 04:46:15;;;;;;;;;;;15.10;99.90;;;;;;5011249;28;19921;-78
2022/08/29 04:48:50;;;;;;;;;;;15.10;99.90;;;;;;5002517;28;19925;-72
2022/08/29 04:51:17;;;;;;;;;;;15.10;99.90;;;;;;5015447;28;20412;-77
2022/08/29 04:53:44;;;;;;;;;;;15.10;99.90;;;;;;5025118;28;19947;-76
2022/08/29 04:56:11;;;;;;;;;;;15.20;99.90;;;;;;5016561;28;19928;-75
2022/08/29 04:58:39;;;;;;;;;;;15.10;99.90;;;;;;5012611;28;19926;-76
2022/08/29 05:01:12;;;;;;;;;;;15.10;99.90;;;;;;5018057;28;20016;-76
2022/08/29 05:03:39;;;;;;;;;;;15.10;99.90;;;;;;5027481;28;19960;-76
2022/08/29 05:06:07;;;;;;;;;;;15.00;99.90;;;;;;5014656;28;20016;-76
2022/08/29 05:08:34;;;;;;;;;;;15.00;99.90;;;;;;5016892;28;19922;-75
2022/08/29 05:11:01;;;;;;;;;;;14.90;99.90;;;;;;5029644;28;20005;-76
2022/08/29 05:13:28;;;;;;;;;;;14.90;99.90;;;;;;5015441;28;19925;-76
2022/08/29 05:15:55;;;;;;;;;;;14.90;99.90;;;;;;5024294;28;19921;-75
2022/08/29 05:18:22;;;;;;;;;;;14.90;99.90;;;;;;5032554;28;19947;-76
2022/08/29 05:20:49;;;;;;;;;;;14.90;99.90;;;;;;5030573;28;20352;-74
2022/08/29 05:23:16;;;;;;;;;;;14.90;99.90;;;;;;5021922;28;19927;-76
2022/08/29 05:25:43;;;;;;;;;;;14.90;99.90;;;;;;5022422;28;19921;-76
2022/08/29 05:28:10;;;;;;;;;;;14.90;99.90;;;;;;5012410;28;19932;-75
2022/08/29 05:30:37;;;;;;;;;;;14.90;99.90;;;;;;5013743;28;19921;-75
2022/08/29 05:33:05;;;;;;;;;;;14.90;99.90;;;;;;5011485;28;20372;-75
2022/08/29 05:35:32;;;;;;;;;;;14.90;99.90;;;;;;5024823;28;19929;-76
2022/08/29 05:37:59;;;;;;;;;;;14.90;99.90;;;;;;5020882;28;20430;-77
2022/08/29 05:40:31;;;;;;;;;;;15.00;99.90;;;;;;5023711;28;19960;-77
2022/08/29 05:42:58;;;;;;;;;;;15.00;99.90;;;;;;5012973;28;19979;-76
2022/08/29 05:45:25;;;;;;;;;;;15.10;99.90;;;;;;5012754;28;19925;-77
2022/08/29 05:47:51;;;;;;;;;;;15.10;99.90;;;;;;5013476;28;19929;-76
2022/08/29 05:50:18;;;;;;;;;;;15.20;99.90;;;;;;5021544;28;19956;-76
2022/08/29 05:52:45;;;;;;;;;;;15.20;99.90;;;;;;5025947;28;19960;-76
2022/08/29 05:55:12;;;;;;;;;;;15.30;99.90;;;;;;5019640;28;19922;-76
2022/08/29 05:57:39;;;;;;;;;;;15.30;99.90;;;;;;5017910;28;19925;-76
2022/08/29 06:00:07;;;;;;;;;;;15.40;99.90;;;;;;5016061;28;19929;-76
2022/08/29 06:02:34;;;;;;;;;;;15.50;99.90;;;;;;5015223;28;19937;-76
2022/08/29 06:05:03;;;;;;;;;;;15.50;99.90;;;;;;5015343;28;19922;-74
2022/08/29 06:07:31;;;;;;;;;;;15.60;99.90;;;;;;5015189;28;19936;-74
2022/08/29 06:09:59;;;;;;;;;;;15.70;99.90;;;;;;5019611;28;19925;-75
2022/08/29 06:12:29;;;;;;;;;;;15.70;99.90;;;;;;5014365;28;20443;-72
2022/08/29 06:14:56;;;;;;;;;;;15.80;99.90;;;;;;5020916;28;19921;-75
2022/08/29 06:17:23;;;;;;;;;;;15.90;99.90;;;;;;5027524;28;19928;-75
2022/08/29 06:19:50;;;;;;;;;;;16.00;99.90;;;;;;5028853;28;19968;-74
2022/08/29 06:22:18;;;;;;;;;;;16.10;99.90;;;;;;5018035;28;20008;-76
2022/08/29 06:24:45;;;;;;;;;;;16.20;99.90;;;;;;5025291;28;19921;-76
2022/08/29 06:27:12;;;;;;;;;;;16.30;99.90;;;;;;5029988;28;20371;-75
2022/08/29 06:29:39;;;;;;;;;;;16.40;99.90;;;;;;5031542;28;19921;-77
2022/08/29 06:32:09;;;;;;;;;;;16.50;99.90;;;;;;5023868;28;19972;-72
2022/08/29 06:34:36;;;;;;;;;;;16.60;99.90;;;;;;5021969;28;19921;-77
2022/08/29 06:37:03;;;;;;;;;;;16.70;99.90;;;;;;5015572;28;20292;-77
2022/08/29 06:39:30;;;;;;;;;;;16.80;99.90;;;;;;5014595;28;19933;-76
2022/08/29 06:41:56;;;;;;;;;;;16.90;99.90;;;;;;5015588;28;19921;-77
2022/08/29 06:44:25;;;;;;;;;;;17.00;99.90;;;;;;5013899;28;20270;-77
2022/08/29 06:46:56;;;;;;;;;;;17.10;99.90;;;;;;5016935;28;19969;-77
2022/08/29 06:49:23;;;;;;;;;;;17.20;99.90;;;;;;5031699;28;19925;-77
2022/08/29 06:51:52;;;;;;;;;;;17.30;99.90;;;;;;5015216;28;19944;-78
2022/08/29 06:54:23;;;;;;;;;;;17.30;99.90;;;;;;5026075;28;19927;-78
2022/08/29 06:56:53;;;;;;;;;;;17.40;99.90;;;;;;5016607;28;19968;-74
2022/08/29 06:59:20;;;;;;;;;;;17.50;99.90;;;;;;5014797;28;19976;-78
2022/08/29 07:01:47;;;;;;;;;;;17.60;99.90;;;;;;5013720;28;19956;-78
2022/08/29 07:04:14;;;;;;;;;;;17.70;99.90;;;;;;5013696;28;19929;-78
2022/08/29 07:06:46;;;;;;;;;;;17.80;99.90;;;;;;5015771;28;19925;-76
2022/08/29 07:09:13;;;;;;;;;;;17.80;99.90;;;;;;5014271;28;19929;-77
2022/08/29 07:11:40;;;;;;;;;;;17.80;99.90;;;;;;5014863;28;20293;-77
2022/08/29 07:14:07;;;;;;;;;;;17.80;99.90;;;;;;5034559;28;19928;-78
2022/08/29 07:16:34;;;;;;;;;;;17.80;99.90;;;;;;5012959;28;19921;-75
2022/08/29 07:19:03;;;;;;;;;;;17.80;99.90;;;;;;5012533;28;19926;-77
2022/08/29 07:21:30;;;;;;;;;;;17.80;99.90;;;;;;5013463;28;19921;-77
2022/08/29 07:23:57;;;;;;;;;;;17.80;99.90;;;;;;5029642;28;19924;-77
2022/08/29 07:26:25;;;;;;;;;;;17.80;99.90;;;;;;5017154;28;20012;-76
2022/08/29 07:28:53;;;;;;;;;;;17.80;99.90;;;;;;5029082;28;19927;-76
2022/08/29 07:31:21;;;;;;;;;;;17.90;99.90;;;;;;5013367;28;19925;-77
2022/08/29 07:33:48;;;;;;;;;;;17.90;99.90;;;;;;5014795;28;19921;-77
2022/08/29 07:36:28;;;;;;;;;;;18.00;99.90;;;;;;5014370;28;19921;-76
2022/08/29 07:38:54;;;;;;;;;;;18.10;99.90;;;;;;5012828;28;20304;-77
2022/08/29 07:41:22;;;;;;;;;;;18.20;99.90;;;;;;5017790;28;19925;-76
2022/08/29 07:43:49;;;;;;;;;;;18.20;99.90;;;;;;5030763;28;20396;-76
2022/08/29 07:46:17;;;;;;;;;;;18.30;99.90;;;;;;5014233;28;19929;-76
2022/08/29 07:48:44;;;;;;;;;;;18.40;99.90;;;;;;5016631;28;19991;-78
2022/08/29 07:51:15;;;;;;;;;;;18.40;99.90;;;;;;5013121;28;19922;-77
2022/08/29 07:53:42;;;;;;;;;;;18.50;99.90;;;;;;5023409;28;19920;-78
2022/08/29 07:56:23;;;;;;;;;;;18.70;99.90;;;;;;5024872;28;19936;-76
2022/08/29 07:58:50;;;;;;;;;;;18.70;99.90;;;;;;5013938;28;20266;-77
2022/08/29 08:01:17;;;;;;;;;;;18.80;99.90;;;;;;5020552;28;19921;-77
2022/08/29 08:03:48;;;;;;;;;;;18.90;99.90;;;;;;5021476;28;20370;-78
2022/08/29 08:06:16;;;;;;;;;;;19.10;99.90;;;;;;5012228;28;19921;-77
2022/08/29 08:08:43;;;;;;;;;;;19.20;99.90;;;;;;5012644;28;20004;-77
2022/08/29 08:11:10;;;;;;;;;;;19.20;99.90;;;;;;5022497;28;19925;-75
2022/08/29 08:13:36;;;;;;;;;;;19.20;99.90;;;;;;5022348;28;19921;-75
2022/08/29 08:16:04;;;;;;;;;;;19.10;99.90;;;;;;5015928;28;20054;-75
2022/08/29 08:18:32;;;;;;;;;;;19.10;99.90;;;;;;5017744;28;19929;-69
2022/08/29 08:20:59;;;;;;;;;;;19.10;99.90;;;;;;5015453;28;19929;-75
2022/08/29 08:23:26;;;;;;;;;;;19.10;99.90;;;;;;5026528;28;19941;-70
2022/08/29 08:25:54;;;;;;;;;;;19.20;99.90;;;;;;5029280;28;20379;-70
2022/08/29 08:28:25;;;;;;;;;;;19.40;99.90;;;;;;5041509;28;19925;-69
2022/08/29 08:30:52;;;;;;;;;;;19.40;99.90;;;;;;5021442;28;19927;-65
2022/08/29 08:33:19;;;;;;;;;;;19.40;99.90;;;;;;5023462;28;19929;-64
2022/08/29 08:35:45;;;;;;;;;;;19.60;99.90;;;;;;5013825;28;19922;-65
2022/08/29 08:38:12;;;;;;;;;;;19.50;99.90;;;;;;5009872;28;20602;-64
2022/08/29 08:40:49;;;;;;;;;;;19.60;99.90;;;;;;5026002;28;20579;-64
2022/08/29 08:43:17;;;;;;;;;;;19.70;99.90;;;;;;5013730;28;19927;-66
2022/08/29 08:45:53;;;;;;;;;;;19.60;99.90;;;;;;5015041;28;19928;-71
2022/08/29 08:48:24;;;;;;;;;;;19.60;99.90;;;;;;5012121;28;19925;-71
2022/08/29 08:50:52;;;;;;;;;;;19.80;99.90;;;;;;5012956;28;20017;-71
2022/08/29 08:53:22;;;;;;;;;;;19.70;99.90;;;;;;5015286;28;19972;-71
2022/08/29 08:55:50;;;;;;;;;;;19.80;99.90;;;;;;5031059;28;19932;-71
2022/08/29 08:58:22;;;;;;;;;;;19.70;99.90;;;;;;5016394;28;19928;-72
2022/08/29 09:00:57;;;;;;;;;;;19.70;99.90;;;;;;5012862;28;19931;-71
2022/08/29 09:03:31;;;;;;;;;;;19.80;99.90;;;;;;5025580;28;19929;-72
2022/08/29 09:06:17;;;;;;;;;;;19.90;99.90;;;;;;5031331;28;20368;-72
2022/08/29 09:08:53;;;;;;;;;;;20.00;99.90;;;;;;5021601;28;19921;-72
2022/08/29 09:11:26;;;;;;;;;;;20.00;99.90;;;;;;5030078;28;20395;-68
2022/08/29 09:14:02;;;;;;;;;;;20.00;99.90;;;;;;5025800;28;19928;-67
2022/08/29 09:16:31;;;;;;;;;;;20.10;99.90;;;;;;5012728;28;19921;-67
2022/08/29 09:19:00;;;;;;;;;;;20.20;99.90;;;;;;5013544;28;19921;-73
2022/08/29 09:21:26;;;;;;;;;;;20.10;99.90;;;;;;5031909;28;20395;-74
2022/08/29 09:24:10;;;;;;;;;;;20.10;99.90;;;;;;5014081;28;19921;-71
2022/08/29 09:26:37;;;;;;;;;;;20.10;99.90;;;;;;5016143;28;19929;-70
2022/08/29 09:29:07;;;;;;;;;;;20.10;99.90;;;;;;5012629;28;20354;-71
2022/08/29 09:31:34;;;;;;;;;;;20.10;99.90;;;;;;5012388;28;19983;-71
2022/08/29 09:34:02;;;;;;;;;;;20.00;99.90;;;;;;5012966;28;19921;-71
2022/08/29 09:36:41;;;;;;;;;;;20.00;99.90;;;;;;5012969;28;20028;-71
2022/08/29 09:39:22;;;;;;;;;;;20.10;99.90;;;;;;5012418;28;20347;-71
2022/08/29 09:41:53;;;;;;;;;;;20.20;99.90;;;;;;5013101;28;19922;-71
2022/08/29 09:44:21;;;;;;;;;;;20.20;99.90;;;;;;5027823;28;19926;-71
2022/08/29 09:47:01;;;;;;;;;;;20.20;99.90;;;;;;5011589;28;19925;-70
2022/08/29 09:49:28;;;;;;;;;;;20.20;99.90;;;;;;5012335;28;20473;-71
2022/08/29 09:51:55;;;;;;;;;;;20.40;99.90;;;;;;5012089;28;19926;-71
2022/08/29 09:54:26;;;;;;;;;;;20.50;99.90;;;;;;5043663;28;19925;-71
2022/08/29 09:57:00;;;;;;;;;;;20.40;99.90;;;;;;5032473;28;19927;-71
2022/08/29 09:59:28;;;;;;;;;;;20.50;99.90;;;;;;5038504;28;19921;-70
2022/08/29 10:02:14;;;;;;;;;;;20.70;99.90;;;;;;5027404;28;19956;-70
2022/08/29 10:04:41;;;;;;;;;;;20.80;99.90;;;;;;5012636;28;19975;-70
2022/08/29 10:07:13;;;;;;;;;;;20.90;99.90;;;;;;5027076;28;19921;-70
2022/08/29 10:09:40;;;;;;;;;;;21.00;99.90;;;;;;5011389;28;19931;-71
2022/08/29 10:12:11;;;;;;;;;;;21.00;99.90;;;;;;5027339;28;20008;-70
2022/08/29 10:14:46;;;;;;;;;;;21.10;99.90;;;;;;5027625;28;19928;-70
2022/08/29 10:20:05;;;;;;;;;;;21.30;99.90;;;;;;5024905;28;19928;-71
2022/08/29 10:22:40;;;;;;;;;;;21.40;99.90;;;;;;5028046;28;19928;-71
2022/08/29 10:25:07;;;;;;;;;;;21.20;99.90;;;;;;5016781;28;19935;-70
2022/08/29 10:27:36;;;;;;;;;;;21.10;99.90;;;;;;5018031;28;19921;-71
2022/08/29 10:30:19;;;;;;;;;;;21.10;99.90;;;;;;5031777;28;20267;-71
2022/08/29 10:32:58;;;;;;;;;;;21.10;99.90;;;;;;5063977;28;20279;-70
2022/08/29 10:35:28;;;;;;;;;;;21.10;99.90;;;;;;5031717;28;19921;-70
2022/08/29 10:37:56;;;;;;;;;;;21.00;99.90;;;;;;5062601;28;19921;-71
2022/08/29 10:40:38;;;;;;;;;;;21.00;99.90;;;;;;5045768;28;19921;-70
2022/08/29 10:43:21;;;;;;;;;;;21.00;99.90;;;;;;5012155;28;19927;-72
2022/08/29 10:46:06;;;;;;;;;;;21.10;99.90;;;;;;5015626;28;20312;-71
2022/08/29 10:48:38;;;;;;;;;;;21.10;99.90;;;;;;5015716;28;19921;-70
2022/08/29 10:51:08;;;;;;;;;;;21.10;99.90;;;;;;5030287;28;19929;-70
2022/08/29 10:53:39;;;;;;;;;;;21.10;99.90;;;;;;5024692;28;19927;-72
2022/08/29 10:56:06;;;;;;;;;;;21.10;99.90;;;;;;5018508;28;19922;-71
2022/08/29 10:58:45;;;;;;;;;;;21.30;99.90;;;;;;5015247;28;19921;-70
2022/08/29 11:01:21;;;;;;;;;;;21.30;99.90;;;;;;5013970;28;20016;-75
2022/08/29 11:03:51;;;;;;;;;;;21.40;99.90;;;;;;5013972;28;19968;-70
2022/08/29 11:06:24;;;;;;;;;;;21.50;99.90;;;;;;5030459;28;19971;-71
2022/08/29 11:08:52;;;;;;;;;;;21.60;99.90;;;;;;5028328;28;19924;-71
2022/08/29 11:11:19;;;;;;;;;;;21.70;99.90;;;;;;5017161;28;19932;-71
2022/08/29 11:13:50;;;;;;;;;;;21.70;99.90;;;;;;5033526;28;19921;-72
2022/08/29 11:16:35;;;;;;;;;;;21.60;99.90;;;;;;5025889;28;19921;-69
2022/08/29 11:19:15;;;;;;;;;;;21.70;99.90;;;;;;5015426;28;20325;-68
2022/08/29 11:22:14;;;;;;;;;;;21.80;99.90;;;;;;5012882;28;20315;-68
2022/08/29 11:24:40;;;;;;;;;;;21.90;99.90;;;;;;5032569;28;19932;-69
2022/08/29 11:27:12;;;;;;;;;;;22.00;99.90;;;;;;5021486;28;19973;-70
2022/08/29 11:30:13;;;;;;;;;;;22.10;99.90;;;;;;5029373;28;19921;-79
2022/08/29 11:32:43;;;;;;;;;;;22.20;99.90;;;;;;5026364;28;19944;-79
2022/08/29 11:35:16;;;;;;;;;;;22.30;99.90;;;;;;5024297;28;19925;-73
2022/08/29 11:37:58;;;;;;;;;;;22.30;99.60;;;;;;5016815;28;19921;-72
2022/08/29 11:40:31;;;;;;;;;;;22.30;99.90;;;;;;5034206;28;19928;-73
2022/08/29 11:43:18;;;;;;;;;;;22.30;99.90;;;;;;5031665;28;20039;-73
2022/08/29 11:45:52;;;;;;;;;;;22.40;99.90;;;;;;5034185;28;19927;-73
2022/08/29 11:48:30;;;;;;;;;;;22.30;99.80;;;;;;5021954;28;20017;-73
2022/08/29 11:50:58;;;;;;;;;;;22.20;99.90;;;;;;5014356;28;19928;-72
2022/08/29 11:53:36;;;;;;;;;;;22.10;99.90;;;;;;5032624;28;19925;-72
2022/08/29 11:56:06;;;;;;;;;;;22.00;99.90;;;;;;5025259;28;20004;-73
2022/08/29 11:58:34;;;;;;;;;;;22.00;99.90;;;;;;5018091;28;20018;-70
2022/08/29 12:01:01;;;;;;;;;;;22.10;99.90;;;;;;5033345;28;19928;-69
2022/08/29 12:03:31;;;;;;;;;;;22.10;99.90;;;;;;5028077;28;19928;-70
2022/08/29 12:06:17;;;;;;;;;;;22.20;99.90;;;;;;5014320;28;19984;-70
2022/08/29 12:08:45;;;;;;;;;;;22.10;99.90;;;;;;5020908;28;19927;-68
2022/08/29 12:11:12;;;;;;;;;;;22.10;99.90;;;;;;5029012;28;20036;-67
2022/08/29 12:13:42;;;;;;;;;;;21.90;99.90;;;;;;5016047;28;19928;-68
2022/08/29 12:16:09;;;;;;;;;;;21.80;99.90;;;;;;5014604;28;19921;-70
2022/08/29 12:18:43;;;;;;;;;;;21.80;99.90;;;;;;5020791;28;19983;-71
2022/08/29 12:21:30;;;;;;;;;;;21.80;99.90;;;;;;5022808;28;19922;-67
2022/08/29 12:23:56;;;;;;;;;;;21.70;99.90;;;;;;5023953;28;19921;-67
2022/08/29 12:26:41;;;;;;;;;;;21.60;99.90;;;;;;5018828;28;19929;-70
2022/08/29 12:29:16;;;;;;;;;;;21.70;99.90;;;;;;5020742;28;19924;-69
2022/08/29 12:31:57;;;;;;;;;;;21.70;99.90;;;;;;5024887;28;20440;-72
2022/08/29 12:34:47;;;;;;;;;;;21.70;99.90;;;;;;5022674;28;19928;-72
2022/08/29 12:37:35;;;;;;;;;;;21.90;99.90;;;;;;5011743;28;19968;-71
2022/08/29 12:40:11;;;;;;;;;;;21.80;99.90;;;;;;5013284;28;19925;-73
2022/08/29 12:42:41;;;;;;;;;;;21.90;99.90;;;;;;5018472;28;19987;-73
2022/08/29 12:45:12;;;;;;;;;;;22.10;99.90;;;;;;5021612;28;20008;-72
2022/08/29 12:47:40;;;;;;;;;;;22.30;99.90;;;;;;5026022;28;19930;-72
2022/08/29 12:50:14;;;;;;;;;;;22.40;99.90;;;;;;5037881;28;19960;-72
2022/08/29 12:52:41;;;;;;;;;;;22.50;99.90;;;;;;5023762;28;20395;-73
2022/08/29 12:55:24;;;;;;;;;;;22.50;99.90;;;;;;5031912;28;19926;-69
2022/08/29 12:57:55;;;;;;;;;;;22.40;99.90;;;;;;4995036;28;19921;-65
2022/08/29 13:00:23;;;;;;;;;;;22.30;99.90;;;;;;5024368;28;19921;-72
2022/08/29 13:02:59;;;;;;;;;;;22.40;99.90;;;;;;4995567;28;19928;-71
2022/08/29 13:05:26;;;;;;;;;;;22.30;99.90;;;;;;5023814;28;20376;-70
2022/08/29 13:07:55;;;;;;;;;;;22.50;99.90;;;;;;5022588;28;19928;-71
2022/08/29 13:10:22;;;;;;;;;;;22.50;99.90;;;;;;5020157;28;20028;-71
2022/08/29 13:12:49;;;;;;;;;;;22.60;99.90;;;;;;5023001;28;20272;-69
2022/08/29 13:15:23;;;;;;;;;;;22.40;99.90;;;;;;5016757;28;19936;-71
2022/08/29 13:17:50;;;;;;;;;;;22.40;99.90;;;;;;5028083;28;19932;-70
2022/08/29 13:20:36;;;;;;;;;;;22.40;99.90;;;;;;5013997;28;19935;-71
2022/08/29 13:23:23;;;;;;;;;;;22.50;99.90;;;;;;5025629;28;19927;-72
2022/08/29 13:25:58;;;;;;;;;;;22.50;99.90;;;;;;5018264;28;19921;-71
2022/08/29 13:28:41;;;;;;;;;;;22.40;99.90;;;;;;5011832;28;19925;-71
2022/08/29 13:31:14;;;;;;;;;;;22.30;99.90;;;;;;5012710;28;19921;-71
2022/08/29 13:33:44;;;;;;;;;;;22.30;99.90;;;;;;4992076;28;20363;-71
2022/08/29 13:36:26;;;;;;;;;;;22.30;99.90;;;;;;5031091;28;19925;-70
2022/08/29 13:39:11;;;;;;;;;;;22.20;99.90;;;;;;5029837;28;19928;-70
2022/08/29 13:41:38;;;;;;;;;;;22.20;99.90;;;;;;5024787;28;20241;-71
2022/08/29 13:44:05;;;;;;;;;;;21.90;99.90;;;;;;5026078;28;19929;-71
2022/08/29 13:46:32;;;;;;;;;;;21.90;99.90;;;;;;5012060;28;22029;-71
2022/08/29 13:48:59;;;;;;;;;;;22.10;99.90;;;;;;5026605;28;20325;-71
2022/08/29 13:51:27;;;;;;;;;;;22.20;99.90;;;;;;5024273;28;19925;-70
2022/08/29 13:53:54;;;;;;;;;;;22.30;99.90;;;;;;5020661;28;19921;-71
2022/08/29 13:56:29;;;;;;;;;;;22.60;99.90;;;;;;5032414;28;20296;-72
2022/08/29 13:58:58;;;;;;;;;;;22.80;99.90;;;;;;5041491;28;19964;-72
2022/08/29 14:01:25;;;;;;;;;;;22.70;99.60;;;;;;5012708;28;19927;-72
2022/08/29 14:03:56;;;;;;;;;;;22.60;99.70;;;;;;5014755;28;19921;-72
2022/08/29 14:06:26;;;;;;;;;;;22.40;99.90;;;;;;5012624;28;19922;-71
2022/08/29 14:08:53;;;;;;;;;;;22.40;99.90;;;;;;5011913;28;19932;-69
2022/08/29 14:11:20;;;;;;;;;;;22.30;99.90;;;;;;5013356;28;20373;-71
2022/08/29 14:13:48;;;;;;;;;;;22.20;99.90;;;;;;5009359;28;19921;-73
2022/08/29 14:16:15;;;;;;;;;;;22.20;99.90;;;;;;5011022;28;19929;-73
2022/08/29 14:18:41;;;;;;;;;;;22.20;99.90;;;;;;5029592;28;19925;-70
2022/08/29 14:21:08;;;;;;;;;;;22.10;99.90;;;;;;5032654;28;19921;-73
2022/08/29 14:23:35;;;;;;;;;;;22.10;99.90;;;;;;5035424;28;19921;-73
2022/08/29 14:26:02;;;;;;;;;;;22.20;99.90;;;;;;5051062;28;19921;-73
2022/08/29 14:28:29;;;;;;;;;;;22.30;99.90;;;;;;5027372;28;19925;-73
2022/08/29 14:30:55;;;;;;;;;;;22.20;99.90;;;;;;5035993;28;20284;-72
2022/08/29 14:33:22;;;;;;;;;;;22.10;99.90;;;;;;5022457;28;20333;-71
2022/08/29 14:35:50;;;;;;;;;;;21.90;99.90;;;;;;5016053;28;19944;-70
2022/08/29 14:38:16;;;;;;;;;;;21.70;99.90;;;;;;5014263;28;19921;-71